createdAt,value
2017-09-19T00:02:23.794Z,22.20
2017-09-19T00:04:51.867Z,22.70
2017-09-19T00:07:19.963Z,20.90
2017-09-19T00:09:48.048Z,24.17
2017-09-19T00:12:16.149Z,25.47
2017-09-19T00:14:44.188Z,23.93
2017-09-19T00:17:12.255Z,25.00
2017-09-19T00:19:40.320Z,26.10
2017-09-19T00:22:08.387Z,24.63
2017-09-19T00:24:36.454Z,24.87
2017-09-19T00:27:04.524Z,21.23
2017-09-19T00:29:32.599Z,25.53
2017-09-19T00:32:00.639Z,23.43
2017-09-19T00:34:28.726Z,22.30
2017-09-19T00:36:56.799Z,25.63
2017-09-19T00:39:24.878Z,23.23
2017-09-19T00:41:52.947Z,24.50
2017-09-19T00:44:21.024Z,25.93
2017-09-19T00:46:49.099Z,23.67
2017-09-19T00:49:17.190Z,22.77
2017-09-19T00:51:45.335Z,24.93
2017-09-19T00:54:13.408Z,23.53
2017-09-19T00:56:41.475Z,25.13
2017-09-19T00:59:09.576Z,26.83
2017-09-19T01:01:37.639Z,23.10
2017-09-19T01:04:05.695Z,28.10
2017-09-19T01:06:33.788Z,26.70
2017-09-19T01:09:01.865Z,26.13
2017-09-19T01:11:29.927Z,27.13
2017-09-19T01:13:58.002Z,24.40
2017-09-19T01:16:26.079Z,26.33
2017-09-19T01:18:54.151Z,26.63
2017-09-19T01:21:22.239Z,25.70
2017-09-19T01:23:50.307Z,27.03
2017-09-19T01:26:18.370Z,26.10
2017-09-19T01:28:46.438Z,27.83
2017-09-19T01:31:14.508Z,26.10
2017-09-19T01:33:42.574Z,26.20
2017-09-19T01:36:10.952Z,27.23
2017-09-19T01:38:39.028Z,27.13
2017-09-19T01:41:08.033Z,28.00
2017-09-19T01:43:36.120Z,29.80
2017-09-19T01:46:04.950Z,28.03
2017-09-19T01:48:33.027Z,31.50
2017-09-19T01:51:01.122Z,28.27
2017-09-19T01:53:29.187Z,31.20
2017-09-19T01:55:57.251Z,27.67
2017-09-19T01:58:25.335Z,28.97
2017-09-19T02:00:53.399Z,28.00
2017-09-19T02:03:21.478Z,26.63
2017-09-19T02:05:49.562Z,28.77
2017-09-19T02:08:18.404Z,26.40
2017-09-19T02:10:46.464Z,28.50
2017-09-19T02:13:14.549Z,25.90
2017-09-19T02:15:42.598Z,28.93
2017-09-19T02:18:10.673Z,27.57
2017-09-19T02:20:38.777Z,25.43
2017-09-19T02:23:06.923Z,27.77
2017-09-19T02:25:35.016Z,24.97
2017-09-19T02:28:03.086Z,28.63
2017-09-19T02:30:31.156Z,26.40
2017-09-19T02:32:59.235Z,27.00
2017-09-19T02:35:28.807Z,27.27
2017-09-19T02:37:56.877Z,24.90
2017-09-19T02:40:25.010Z,28.67
2017-09-19T02:42:53.048Z,24.63
2017-09-19T02:45:21.115Z,25.10
2017-09-19T02:47:49.190Z,26.00
2017-09-19T02:50:17.261Z,26.83
2017-09-19T02:52:45.357Z,28.57
2017-09-19T02:55:13.406Z,26.80
2017-09-19T02:57:41.498Z,28.30
2017-09-19T03:00:10.359Z,27.93
2017-09-19T03:02:38.419Z,26.50
2017-09-19T03:05:06.485Z,27.40
2017-09-19T03:07:34.867Z,24.43
2017-09-19T03:10:02.952Z,26.70
2017-09-19T03:12:31.019Z,25.10
2017-09-19T03:14:59.113Z,22.10
2017-09-19T03:17:27.185Z,22.90
2017-09-19T03:19:55.268Z,23.63
2017-09-19T03:22:23.360Z,26.10
2017-09-19T03:24:51.419Z,24.57
2017-09-19T03:27:19.512Z,23.33
2017-09-19T03:29:47.565Z,24.40
2017-09-19T03:32:15.638Z,25.10
2017-09-19T03:34:43.703Z,27.07
2017-09-19T03:37:12.092Z,26.77
2017-09-19T03:39:40.151Z,24.97
2017-09-19T03:42:08.228Z,26.00
2017-09-19T03:44:36.295Z,26.67
2017-09-19T03:47:04.371Z,28.50
2017-09-19T03:49:32.427Z,33.50
2017-09-19T03:52:00.511Z,31.60
2017-09-19T03:54:28.611Z,29.53
2017-09-19T03:56:57.465Z,27.90
2017-09-19T03:59:25.565Z,25.60
2017-09-19T04:01:53.638Z,25.90
2017-09-19T04:04:21.711Z,25.93
2017-09-19T04:06:50.547Z,27.40
2017-09-19T04:09:18.636Z,25.63
2017-09-19T04:11:46.731Z,27.00
2017-09-19T04:14:14.782Z,25.73
2017-09-19T04:16:42.851Z,26.20
2017-09-19T04:19:10.924Z,26.53
2017-09-19T04:21:39.015Z,30.67
2017-09-19T04:24:07.083Z,30.10
2017-09-19T04:26:35.163Z,31.87
2017-09-19T04:29:03.232Z,30.60
2017-09-19T04:31:31.315Z,34.30
2017-09-19T04:33:59.390Z,37.20
2017-09-19T04:36:27.463Z,37.43
2017-09-19T04:38:56.286Z,40.60
2017-09-19T04:41:24.355Z,38.53
2017-09-19T04:43:52.523Z,40.73
2017-09-19T04:46:20.562Z,39.87
2017-09-19T04:48:48.632Z,42.40
2017-09-19T04:51:16.739Z,41.70
2017-09-19T04:53:44.806Z,40.83
2017-09-19T04:56:12.893Z,41.20
2017-09-19T04:58:40.964Z,39.20
2017-09-19T05:01:09.139Z,40.23
2017-09-19T05:03:37.963Z,40.73
2017-09-19T05:06:06.022Z,42.60
2017-09-19T05:08:34.092Z,39.63
2017-09-19T05:11:02.179Z,41.30
2017-09-19T05:13:30.246Z,41.63
2017-09-19T05:15:58.343Z,39.03
2017-09-19T05:18:26.423Z,38.67
2017-09-19T05:20:54.486Z,40.40
2017-09-19T05:23:22.551Z,40.87
2017-09-19T05:25:50.631Z,37.33
2017-09-19T05:28:18.699Z,34.93
2017-09-19T05:30:46.773Z,37.13
2017-09-19T05:33:14.833Z,33.67
2017-09-19T05:35:42.896Z,35.10
2017-09-19T05:38:10.975Z,36.30
2017-09-19T05:40:39.036Z,38.67
2017-09-19T05:43:07.231Z,37.40
2017-09-19T05:45:35.304Z,37.23
2017-09-19T05:48:03.371Z,37.37
2017-09-19T05:50:31.446Z,36.70
2017-09-19T05:52:59.530Z,35.70
2017-09-19T05:55:27.602Z,33.83
2017-09-19T05:57:56.461Z,31.50
2017-09-19T06:00:24.535Z,32.13
2017-09-19T06:02:52.622Z,33.07
2017-09-19T06:05:20.683Z,37.27
2017-09-19T06:07:48.751Z,34.10
2017-09-19T06:10:16.956Z,33.30
2017-09-19T06:12:45.082Z,32.97
2017-09-19T06:15:13.132Z,35.00
2017-09-19T06:17:41.199Z,35.07
2017-09-19T06:20:09.271Z,33.83
2017-09-19T06:22:37.344Z,33.70
2017-09-19T06:25:05.416Z,31.97
2017-09-19T06:27:33.491Z,36.03
2017-09-19T06:30:01.555Z,33.27
2017-09-19T06:32:29.627Z,33.40
2017-09-19T06:34:57.718Z,35.13
2017-09-19T06:37:27.539Z,35.50
2017-09-19T06:39:56.382Z,33.00
2017-09-19T06:42:24.467Z,33.27
2017-09-19T06:44:52.538Z,35.97
2017-09-19T06:47:20.619Z,37.27
2017-09-19T06:49:48.687Z,39.13
2017-09-19T06:52:16.783Z,36.80
2017-09-19T06:54:45.619Z,36.67
2017-09-19T06:57:13.687Z,37.37
2017-09-19T06:59:41.771Z,38.37
2017-09-19T07:02:09.843Z,37.93
2017-09-19T07:04:38.232Z,36.77
2017-09-19T07:07:06.312Z,36.60
2017-09-19T07:09:34.378Z,37.47
2017-09-19T07:12:02.474Z,38.07
2017-09-19T07:14:30.555Z,35.40
2017-09-19T07:16:59.395Z,38.73
2017-09-19T07:19:27.478Z,39.53
2017-09-19T07:21:55.536Z,37.40
2017-09-19T07:24:23.603Z,37.03
2017-09-19T07:26:51.683Z,38.40
2017-09-19T07:29:19.770Z,35.73
2017-09-19T07:31:47.842Z,36.80
2017-09-19T07:34:15.938Z,38.67
2017-09-19T07:36:44.766Z,36.67
2017-09-19T07:39:12.855Z,34.30
2017-09-19T07:41:40.924Z,38.53
2017-09-19T07:44:09.043Z,34.27
2017-09-19T07:46:37.913Z,35.03
2017-09-19T07:49:05.977Z,35.67
2017-09-19T07:51:34.050Z,37.60
2017-09-19T07:54:02.139Z,40.60
2017-09-19T07:56:30.239Z,41.03
2017-09-19T07:58:59.056Z,38.97
2017-09-19T08:01:27.127Z,37.63
2017-09-19T08:03:55.211Z,41.20
2017-09-19T08:06:23.342Z,39.30
2017-09-19T08:08:51.401Z,40.93
2017-09-19T08:11:20.268Z,38.37
2017-09-19T08:13:48.338Z,39.20
2017-09-19T08:16:16.403Z,41.60
2017-09-19T08:18:44.479Z,44.03
2017-09-19T08:21:12.549Z,39.67
2017-09-19T08:23:40.616Z,43.10
2017-09-19T08:26:08.678Z,44.90
2017-09-19T08:28:36.761Z,43.93
2017-09-19T08:31:04.823Z,38.60
2017-09-19T08:33:32.891Z,43.93
2017-09-19T08:36:00.972Z,43.90
2017-09-19T08:38:29.048Z,44.37
2017-09-19T08:40:57.111Z,43.20
2017-09-19T08:43:25.184Z,43.50
2017-09-19T08:45:53.262Z,45.30
2017-09-19T08:48:21.327Z,43.03
2017-09-19T08:50:49.421Z,42.13
2017-09-19T08:53:17.619Z,40.40
2017-09-19T08:55:45.673Z,43.97
2017-09-19T08:58:13.727Z,44.20
2017-09-19T09:00:42.603Z,40.87
2017-09-19T09:03:10.666Z,41.33
2017-09-19T09:05:38.758Z,41.60
2017-09-19T09:08:06.859Z,39.53
2017-09-19T09:10:35.698Z,39.10
2017-09-19T09:13:03.767Z,41.53
2017-09-19T09:15:31.870Z,40.50
2017-09-19T09:18:00.707Z,40.90
2017-09-19T09:20:28.799Z,43.30
2017-09-19T09:22:56.867Z,42.00
2017-09-19T09:25:24.971Z,40.67
2017-09-19T09:27:53.823Z,39.97
2017-09-19T09:30:21.903Z,38.00
2017-09-19T09:32:50.019Z,37.17
2017-09-19T09:35:18.857Z,42.60
2017-09-19T09:37:46.940Z,42.43
2017-09-19T09:40:15.027Z,43.30
2017-09-19T09:42:43.103Z,42.33
2017-09-19T09:45:11.933Z,43.50
2017-09-19T09:47:40.020Z,44.90
2017-09-19T09:50:08.086Z,46.60
2017-09-19T09:52:36.185Z,42.93
2017-09-19T09:55:04.241Z,44.13
2017-09-19T09:57:32.323Z,42.60
2017-09-19T10:00:00.397Z,47.30
2017-09-19T10:02:28.475Z,44.47
2017-09-19T10:04:56.539Z,48.60
2017-09-19T10:07:24.616Z,43.80
2017-09-19T10:09:52.704Z,43.00
2017-09-19T10:12:20.754Z,42.00
2017-09-19T10:14:48.839Z,43.27
2017-09-19T10:17:16.952Z,39.33
2017-09-19T10:19:45.036Z,38.57
2017-09-19T10:22:13.120Z,41.50
2017-09-19T10:24:41.210Z,38.67
2017-09-19T10:27:10.036Z,36.30
2017-09-19T10:29:38.099Z,36.00
2017-09-19T10:32:06.179Z,34.00
2017-09-19T10:34:34.255Z,33.77
2017-09-19T10:37:02.337Z,29.23
2017-09-19T10:39:30.407Z,27.27
2017-09-19T10:41:58.518Z,25.70
2017-09-19T10:44:27.412Z,25.67
2017-09-19T10:46:56.317Z,25.20
2017-09-19T10:49:24.363Z,25.50
2017-09-19T10:51:53.192Z,23.30
2017-09-19T10:54:21.319Z,23.70
2017-09-19T10:56:49.379Z,24.30
2017-09-19T10:59:17.459Z,21.20
2017-09-19T11:01:45.520Z,21.17
2017-09-19T11:04:13.599Z,19.13
2017-09-19T11:06:41.667Z,20.27
2017-09-19T11:09:09.788Z,19.43
2017-09-19T11:11:37.856Z,19.17
2017-09-19T11:14:06.130Z,19.97
2017-09-19T11:16:34.197Z,17.77
2017-09-19T11:19:02.290Z,17.73
2017-09-19T11:21:30.383Z,19.63
2017-09-19T11:23:59.466Z,18.97
2017-09-19T11:26:27.531Z,18.97
2017-09-19T11:28:55.596Z,19.73
2017-09-19T11:31:23.667Z,20.90
2017-09-19T11:33:51.750Z,21.07
2017-09-19T11:36:19.836Z,20.20
2017-09-19T11:38:48.668Z,19.53
2017-09-19T11:41:16.756Z,17.20
2017-09-19T11:43:44.831Z,17.67
2017-09-19T11:46:12.927Z,18.47
2017-09-19T11:48:40.986Z,18.67
2017-09-19T11:51:09.862Z,18.00
2017-09-19T11:53:37.932Z,17.20
2017-09-19T11:56:06.023Z,14.60
2017-09-19T11:58:34.088Z,13.73
2017-09-19T12:01:02.164Z,12.70
2017-09-19T12:03:30.243Z,13.37
2017-09-19T12:05:58.323Z,13.97
2017-09-19T12:08:27.195Z,12.17
2017-09-19T12:10:55.293Z,10.93
2017-09-19T12:13:24.106Z,11.17
2017-09-19T12:15:52.964Z,12.33
2017-09-19T12:18:21.057Z,11.37
2017-09-19T12:20:50.684Z,10.10
2017-09-19T12:23:19.502Z,11.10
2017-09-19T12:25:47.567Z,11.00
2017-09-19T12:28:15.687Z,10.90
2017-09-19T12:30:43.767Z,10.77
2017-09-19T12:33:11.836Z,9.83
2017-09-19T12:35:41.415Z,10.30
2017-09-19T12:38:09.485Z,9.80
2017-09-19T12:40:37.622Z,10.30
2017-09-19T12:43:05.656Z,10.03
2017-09-19T12:45:35.277Z,10.83
2017-09-19T12:48:03.324Z,10.97
2017-09-19T12:50:31.415Z,10.67
2017-09-19T12:52:59.469Z,10.50
2017-09-19T12:55:27.534Z,9.13
2017-09-19T12:57:55.636Z,9.90
2017-09-19T13:00:24.463Z,8.67
2017-09-19T13:02:52.527Z,9.40
2017-09-19T13:05:20.632Z,8.90
2017-09-19T13:07:48.693Z,11.00
2017-09-19T13:10:16.779Z,9.80
2017-09-19T13:12:44.866Z,8.10
2017-09-19T13:15:12.928Z,10.07
2017-09-19T13:17:40.983Z,9.40
2017-09-19T13:20:09.085Z,10.20
2017-09-19T13:22:37.147Z,8.30
2017-09-19T13:25:05.246Z,7.50
2017-09-19T13:27:33.339Z,7.03
2017-09-19T13:30:01.419Z,8.67
2017-09-19T13:46:00.279Z,8.47
2017-09-19T13:48:28.339Z,8.00
2017-09-19T13:50:56.396Z,7.63
2017-09-19T13:53:24.475Z,8.50
2017-09-19T13:55:52.523Z,8.07
2017-09-19T13:58:20.613Z,7.73
2017-09-19T14:00:48.679Z,9.00
2017-09-19T14:03:16.896Z,7.83
2017-09-19T14:05:45.735Z,8.10
2017-09-19T14:08:13.834Z,7.30
2017-09-19T14:10:41.870Z,8.50
2017-09-19T14:13:09.947Z,8.70
2017-09-19T14:15:39.511Z,8.00
2017-09-19T14:18:07.562Z,6.90
2017-09-19T14:20:36.406Z,6.33
2017-09-19T14:23:04.478Z,5.50
2017-09-19T14:25:32.557Z,6.70
2017-09-19T14:28:00.615Z,7.20
2017-09-19T14:30:28.667Z,7.57
2017-09-19T14:32:56.737Z,7.97
2017-09-19T14:35:24.825Z,6.90
2017-09-19T14:37:52.923Z,7.90
2017-09-19T14:40:20.950Z,8.37
2017-09-19T14:42:49.031Z,8.00
2017-09-19T14:45:17.092Z,7.50
2017-09-19T14:47:45.164Z,8.50
2017-09-19T14:50:13.234Z,9.30
2017-09-19T14:52:41.322Z,10.43
2017-09-19T14:55:09.399Z,11.30
2017-09-19T14:57:37.475Z,11.93
2017-09-19T15:00:05.569Z,11.17
2017-09-19T15:02:34.815Z,12.07
2017-09-19T15:05:02.902Z,11.93
2017-09-19T15:07:31.003Z,13.40
2017-09-19T15:09:59.091Z,12.20
2017-09-19T15:12:27.930Z,11.53
2017-09-19T15:14:56.020Z,12.67
2017-09-19T15:17:24.106Z,12.67
2017-09-19T15:19:52.185Z,12.70
2017-09-19T15:22:21.188Z,12.90
2017-09-19T15:24:49.277Z,12.57
2017-09-19T15:27:17.342Z,11.70
2017-09-19T15:29:45.422Z,11.43
2017-09-19T15:32:14.357Z,12.43
2017-09-19T15:34:42.431Z,12.40
2017-09-19T15:37:10.518Z,13.37
2017-09-19T15:39:38.599Z,13.07
2017-09-19T15:42:06.684Z,10.93
2017-09-19T15:44:34.776Z,12.53
2017-09-19T15:47:03.615Z,12.27
2017-09-19T15:49:31.712Z,11.60
2017-09-19T15:51:59.780Z,12.20
2017-09-19T15:54:27.855Z,13.40
2017-09-19T15:56:55.922Z,12.73
2017-09-19T15:59:23.991Z,12.27
2017-09-19T16:01:52.100Z,12.80
2017-09-19T16:04:20.987Z,13.17
2017-09-19T16:06:49.180Z,13.37
2017-09-19T16:09:18.108Z,13.17
2017-09-19T16:11:46.301Z,13.00
2017-09-19T16:14:14.445Z,14.33
2017-09-19T16:16:43.039Z,14.47
2017-09-19T16:19:11.907Z,14.13
2017-09-19T16:21:40.093Z,14.87
2017-09-19T16:24:08.182Z,13.67
2017-09-19T16:26:36.259Z,15.30
2017-09-19T16:29:04.386Z,16.20
2017-09-19T16:31:32.535Z,15.57
2017-09-19T16:34:01.386Z,16.40
2017-09-19T16:36:29.553Z,15.07
2017-09-19T16:38:57.641Z,14.80
2017-09-19T16:41:26.508Z,14.60
2017-09-19T16:43:54.654Z,14.17
2017-09-19T16:46:23.035Z,16.03
2017-09-19T16:48:51.132Z,14.83
2017-09-19T16:51:20.034Z,15.40
2017-09-19T16:53:48.619Z,15.40
2017-09-19T16:56:18.263Z,15.47
2017-09-19T16:58:47.758Z,15.80
2017-09-19T17:01:17.218Z,15.27
2017-09-19T17:03:45.365Z,14.67
2017-09-19T17:06:13.755Z,15.77
2017-09-19T17:08:41.863Z,17.97
2017-09-19T17:11:11.156Z,14.90
2017-09-19T17:13:40.039Z,14.50
2017-09-19T17:16:09.213Z,12.53
2017-09-19T17:18:43.190Z,14.30
2017-09-19T17:21:11.265Z,12.90
2017-09-19T17:23:40.612Z,14.00
2017-09-19T17:26:08.876Z,14.27
2017-09-19T17:28:36.973Z,15.30
2017-09-19T17:31:05.076Z,14.77
2017-09-19T17:33:34.729Z,14.27
2017-09-19T17:36:02.798Z,14.93
2017-09-19T17:38:30.928Z,16.37
2017-09-19T17:40:59.021Z,17.50
2017-09-19T17:43:27.887Z,16.00
2017-09-19T17:45:55.981Z,15.73
2017-09-19T17:48:24.879Z,15.10
2017-09-19T17:50:54.334Z,17.67
2017-09-19T17:53:22.395Z,15.93
2017-09-19T17:55:50.487Z,17.73
2017-09-19T17:58:18.569Z,15.10
2017-09-19T18:00:46.647Z,16.90
2017-09-19T18:03:16.102Z,15.77
2017-09-19T18:05:44.196Z,16.27
2017-09-19T18:08:12.296Z,13.80
2017-09-19T18:10:41.523Z,14.83
2017-09-19T18:13:10.356Z,14.80
2017-09-19T18:15:38.425Z,16.67
2017-09-19T18:18:06.591Z,24.47
2017-09-19T18:20:34.665Z,18.57
2017-09-19T18:23:02.753Z,17.87
2017-09-19T18:25:30.828Z,18.70
2017-09-19T18:27:58.929Z,19.30
2017-09-19T18:30:27.016Z,19.53
2017-09-19T18:32:55.856Z,18.93
2017-09-19T18:35:23.914Z,18.60
2017-09-19T18:37:52.003Z,19.33
2017-09-19T18:40:20.118Z,19.30
2017-09-19T18:42:48.944Z,20.33
2017-09-19T18:45:17.039Z,22.07
2017-09-19T18:47:45.121Z,22.17
2017-09-19T18:50:13.191Z,22.70
2017-09-19T18:52:41.275Z,20.30
2017-09-19T18:55:09.378Z,21.13
2017-09-19T18:57:38.211Z,21.27
2017-09-19T19:00:06.292Z,20.07
2017-09-19T19:02:34.427Z,21.00
2017-09-19T19:05:02.498Z,22.40
2017-09-19T19:07:30.573Z,21.27
2017-09-19T19:09:58.649Z,23.27
2017-09-19T19:12:26.741Z,21.53
2017-09-19T19:14:54.808Z,22.07
2017-09-19T19:17:22.883Z,22.93
2017-09-19T19:19:50.989Z,23.30
2017-09-19T19:22:19.065Z,20.77
2017-09-19T19:24:47.143Z,21.70
2017-09-19T19:27:15.281Z,20.90
2017-09-19T19:29:43.391Z,21.83
2017-09-19T19:32:11.463Z,23.30
2017-09-19T19:34:39.533Z,25.10
2017-09-19T19:37:07.601Z,23.00
2017-09-19T19:39:35.687Z,22.03
2017-09-19T19:42:04.547Z,22.07
2017-09-19T19:44:32.606Z,22.90
2017-09-19T19:47:00.704Z,21.60
2017-09-19T19:49:28.784Z,22.07
2017-09-19T19:51:57.642Z,25.83
2017-09-19T19:54:25.703Z,24.23
2017-09-19T19:56:54.314Z,25.77
2017-09-19T19:59:22.385Z,24.57
2017-09-19T20:01:50.473Z,23.70
2017-09-19T20:04:19.319Z,25.13
2017-09-19T20:06:47.408Z,25.07
2017-09-19T20:09:15.493Z,24.27
2017-09-19T20:11:43.674Z,25.40
2017-09-19T20:14:12.524Z,24.90
2017-09-19T20:16:40.623Z,24.13
2017-09-19T20:19:08.730Z,24.80
2017-09-19T20:21:36.791Z,25.40
2017-09-19T20:24:04.881Z,26.67
2017-09-19T20:26:32.955Z,27.87
2017-09-19T20:29:01.056Z,28.10
2017-09-19T20:31:29.902Z,27.37
2017-09-19T20:33:57.959Z,25.57
2017-09-19T20:36:26.060Z,20.87
2017-09-19T20:38:54.132Z,28.03
2017-09-19T20:41:22.885Z,25.70
2017-09-19T20:43:50.938Z,25.60
2017-09-19T20:46:19.022Z,27.57
2017-09-19T20:48:47.107Z,26.40
2017-09-19T20:51:15.195Z,26.50
2017-09-19T20:53:43.266Z,25.67
2017-09-19T20:56:11.423Z,23.70
2017-09-19T20:58:39.508Z,27.50
2017-09-19T21:01:07.558Z,22.63
2017-09-19T21:03:41.402Z,25.00
2017-09-19T21:06:15.131Z,25.53
2017-09-19T21:08:49.567Z,25.93
2017-09-19T21:11:23.244Z,26.63
2017-09-19T21:13:56.987Z,25.00
2017-09-19T21:16:30.636Z,25.30
2017-09-19T21:19:04.439Z,27.00
2017-09-19T21:21:33.312Z,26.57
2017-09-19T21:24:01.396Z,24.13
2017-09-19T21:26:30.274Z,26.10
2017-09-19T21:28:58.375Z,23.80
2017-09-19T21:31:26.457Z,26.00
2017-09-19T21:33:54.535Z,27.77
2017-09-19T21:36:22.612Z,27.37
2017-09-19T21:38:50.696Z,25.50
2017-09-19T21:41:18.763Z,26.20
2017-09-19T21:43:46.840Z,26.00
2017-09-19T21:46:15.037Z,29.03
2017-09-19T21:48:43.098Z,26.67
2017-09-19T21:51:11.170Z,26.40
2017-09-19T21:53:39.258Z,26.30
2017-09-19T21:56:07.371Z,25.03
2017-09-19T21:58:35.441Z,26.40
2017-09-19T22:01:03.518Z,30.00
2017-09-19T22:03:31.586Z,27.87
2017-09-19T22:05:59.671Z,28.57
2017-09-19T22:08:27.743Z,29.33
2017-09-19T22:10:55.841Z,29.13
2017-09-19T22:13:23.961Z,31.07
2017-09-19T22:15:52.804Z,31.53
2017-09-19T22:18:20.900Z,32.00
2017-09-19T22:20:49.726Z,30.60
2017-09-19T22:23:17.926Z,31.67
2017-09-19T22:25:46.003Z,31.83
2017-09-19T22:28:14.843Z,31.87
2017-09-19T22:30:42.945Z,31.10
2017-09-19T22:33:11.771Z,29.70
2017-09-19T22:35:39.915Z,30.43
2017-09-19T22:38:07.970Z,30.87
2017-09-19T22:40:36.040Z,31.17
2017-09-19T22:43:04.195Z,31.90
2017-09-19T22:45:32.270Z,33.00
2017-09-19T22:48:00.351Z,31.73
2017-09-19T22:50:28.408Z,31.40
2017-09-19T22:52:56.827Z,34.10
2017-09-19T22:55:25.652Z,31.70
2017-09-19T22:57:53.714Z,31.17
2017-09-19T23:00:21.803Z,32.83
2017-09-19T23:02:49.866Z,32.60
2017-09-19T23:05:17.935Z,29.87
2017-09-19T23:07:46.006Z,36.03
2017-09-19T23:10:14.075Z,34.27
2017-09-19T23:12:42.158Z,34.27
2017-09-19T23:15:10.215Z,34.80
2017-09-19T23:17:38.283Z,32.90
2017-09-19T23:20:06.349Z,31.57
2017-09-19T23:22:34.431Z,32.00
2017-09-19T23:25:02.494Z,34.30
2017-09-19T23:27:30.567Z,33.57
2017-09-19T23:29:58.629Z,37.03
2017-09-19T23:32:27.468Z,35.20
2017-09-19T23:34:55.537Z,35.50
2017-09-19T23:37:23.643Z,33.90
2017-09-19T23:39:52.471Z,32.40
2017-09-19T23:42:20.540Z,31.53
2017-09-19T23:44:48.647Z,35.80
2017-09-19T23:47:16.724Z,33.23
2017-09-19T23:49:44.811Z,37.10
2017-09-19T23:52:12.891Z,33.13
2017-09-19T23:54:41.722Z,35.50
2017-09-19T23:57:09.798Z,36.07
2017-09-19T23:59:37.880Z,33.97
